Time;durP1;ratioP1;P1;durP2;ratioP2;P2;SDS_P1;SDS_P2;PMS_P1;PMS_P2;Temp;Humidity;BMP_temperature;BMP_pressure;BME280_temperature;BME280_humidity;BME280_pressure;Samples;Min_cycle;Max_cycle;Signal;HPM_P1;HPM_P2
2022/01/19 00:00:14;;;;;;;0.10;0.10;;;;;;;3.39;100.00;102585.03;5032059;28;20042;-80
2022/01/19 00:02:48;;;;;;;0.10;0.10;;;;;;;3.36;100.00;102569.25;5025531;28;20048;-80
2022/01/19 00:05:16;;;;;;;0.10;0.10;;;;;;;3.38;100.00;102569.88;5031341;28;20513;-80
2022/01/19 00:07:49;;;;;;;0.00;0.00;;;;;;;3.33;100.00;102565.06;5028884;28;20068;-81
2022/01/19 00:10:20;;;;;;;0.00;0.00;;;;;;;3.48;100.00;102564.22;5027792;28;20053;-80
2022/01/19 00:12:54;;;;;;;0.10;0.10;;;;;;;3.35;100.00;102560.31;5032668;28;20049;-80
2022/01/19 00:15:25;;;;;;;0.10;0.10;;;;;;;3.28;100.00;102563.97;5029925;28;20065;-79
2022/01/19 00:17:56;;;;;;;0.10;0.10;;;;;;;3.31;100.00;102567.09;5025654;28;20708;-80
2022/01/19 00:20:31;;;;;;;0.03;0.03;;;;;;;3.27;100.00;102563.09;5029151;28;20061;-81
2022/01/19 00:23:05;;;;;;;0.10;0.10;;;;;;;3.32;100.00;102563.38;5021946;28;20050;-80
2022/01/19 00:25:39;;;;;;;0.10;0.10;;;;;;;3.31;100.00;102563.59;5018950;28;20037;-81
2022/01/19 00:28:07;;;;;;;0.10;0.10;;;;;;;3.39;100.00;102563.50;5024987;28;20049;-80
2022/01/19 00:30:37;;;;;;;0.10;0.10;;;;;;;3.33;100.00;102546.22;5018330;28;20056;-80
2022/01/19 00:33:05;;;;;;;0.10;0.10;;;;;;;3.26;100.00;102542.63;5026663;28;20493;-80
2022/01/19 00:35:38;;;;;;;0.10;0.10;;;;;;;3.29;100.00;102522.59;5026014;28;20041;-80
2022/01/19 00:38:12;;;;;;;0.10;0.10;;;;;;;3.25;100.00;102519.41;5023434;28;20589;-79
2022/01/19 00:40:46;;;;;;;0.10;0.10;;;;;;;3.23;100.00;102508.84;5022591;28;20053;-79
2022/01/19 00:43:19;;;;;;;0.08;0.08;;;;;;;3.23;100.00;102505.28;5020836;28;20523;-79
2022/01/19 00:45:49;;;;;;;0.10;0.10;;;;;;;3.18;100.00;102497.78;5027046;28;20046;-80
2022/01/19 00:48:22;;;;;;;0.10;0.10;;;;;;;3.17;100.00;102500.66;5024299;28;20053;-80
2022/01/19 00:50:51;;;;;;;0.00;0.00;;;;;;;3.22;100.00;102501.78;5024299;28;20053;-80
2022/01/19 00:53:19;;;;;;;0.10;0.10;;;;;;;3.15;100.00;102505.38;5026026;28;20060;-80
2022/01/19 00:55:48;;;;;;;0.10;0.10;;;;;;;3.12;100.00;102498.53;5027756;28;20053;-80
2022/01/19 00:58:16;;;;;;;0.10;0.10;;;;;;;3.19;100.00;102512.06;5022791;28;20061;-80
2022/01/19 01:00:51;;;;;;;0.00;0.00;;;;;;;3.17;100.00;102500.66;5023312;28;20049;-80
2022/01/19 01:03:24;;;;;;;0.10;0.10;;;;;;;3.19;100.00;102512.06;5026708;28;20048;-79
2022/01/19 01:05:52;;;;;;;0.00;0.00;;;;;;;3.14;100.00;102522.56;5022771;28;20691;-80
2022/01/19 01:08:25;;;;;;;0.00;0.00;;;;;;;3.17;100.00;102525.72;5025537;28;20064;-80
2022/01/19 01:10:54;;;;;;;0.10;0.10;;;;;;;3.12;100.00;102509.31;5023689;28;20049;-80
2022/01/19 01:15:24;;;;;;;0.10;0.10;;;;;;;3.10;100.00;102514.03;5026788;28;20708;-80
2022/01/19 01:16:32;;;;;;;0.05;0.05;;;;;;;3.22;100.00;102528.69;5024615;28;20045;-80
2022/01/19 01:19:08;;;;;;;0.10;0.10;;;;;;;3.19;100.00;102521.00;5029111;28;20056;-81
2022/01/19 01:21:41;;;;;;;0.10;0.10;;;;;;;3.26;100.00;102522.94;5028771;28;20053;-80
2022/01/19 01:24:14;;;;;;;0.10;0.10;;;;;;;3.19;100.00;102515.59;5025332;28;20060;-79
2022/01/19 01:26:47;;;;;;;0.10;0.10;;;;;;;3.16;100.00;102501.69;5034200;28;20060;-79
2022/01/19 01:29:16;;;;;;;0.10;0.10;;;;;;;3.10;100.00;102495.19;5034117;28;20055;-79
2022/01/19 01:31:45;;;;;;;0.10;0.10;;;;;;;3.11;100.00;102499.56;5032840;28;20436;-79
2022/01/19 01:34:14;;;;;;;0.05;0.05;;;;;;;3.14;100.00;102501.06;5023990;28;20490;-80
2022/01/19 01:36:47;;;;;;;0.10;0.10;;;;;;;3.15;100.00;102490.09;5028373;28;20049;-81
2022/01/19 01:39:21;;;;;;;0.10;0.10;;;;;;;3.10;100.00;102470.16;5018838;28;20057;-80
2022/01/19 01:41:54;;;;;;;0.10;0.10;;;;;;;3.13;100.00;102475.16;5026800;28;20045;-80
2022/01/19 01:44:35;;;;;;;0.08;0.08;;;;;;;3.04;100.00;102451.03;5017198;28;20056;-81
2022/01/19 01:47:11;;;;;;;0.10;0.10;;;;;;;3.06;100.00;102443.59;5024754;28;20053;-80
2022/01/19 01:49:46;;;;;;;0.10;0.10;;;;;;;3.04;100.00;102432.22;5031329;28;20052;-81
2022/01/19 01:55:16;;;;;;;0.10;0.10;;;;;;;2.91;100.00;102378.22;4997681;28;20054;-81
2022/01/19 01:57:44;;;;;;;0.10;0.10;;;;;;;2.93;100.00;102384.28;5025923;28;20402;-81
2022/01/19 02:00:22;;;;;;;0.10;0.10;;;;;;;2.98;100.00;102384.53;5021542;28;20046;-80
2022/01/19 02:02:58;;;;;;;0.10;0.10;;;;;;;3.01;100.00;102369.88;5022966;28;20046;-81
2022/01/19 02:05:34;;;;;;;0.00;0.00;;;;;;;2.92;100.00;102363.78;5027174;28;20052;-80
2022/01/19 02:08:07;;;;;;;0.10;0.10;;;;;;;2.86;100.00;102378.81;5035940;28;20049;-80
2022/01/19 02:10:57;;;;;;;0.00;0.00;;;;;;;2.94;100.00;102395.84;5038038;28;20358;-80
2022/01/19 02:16:29;;;;;;;0.10;0.10;;;;;;;2.87;100.00;102380.47;5019617;28;20057;-80
2022/01/19 02:22:00;;;;;;;0.10;0.10;;;;;;;2.84;100.00;102378.13;5020975;28;20707;-81
2022/01/19 02:24:42;;;;;;;0.10;0.10;;;;;;;2.87;100.00;102364.34;5024319;28;20045;-80
2022/01/19 02:30:38;;;;;;;0.10;0.10;;;;;;;2.92;100.00;102346.81;5039636;28;20477;-80
2022/01/19 02:41:44;;;;;;;0.10;0.10;;;;;;;2.68;100.00;102316.50;5021559;28;20050;-80
2022/01/19 02:44:32;;;;;;;0.10;0.10;;;;;;;2.77;100.00;102317.25;5021872;28;20044;-80
2022/01/19 02:49:54;;;;;;;0.03;0.03;;;;;;;2.55;100.00;102274.16;5017563;28;20049;-81
2022/01/19 02:52:24;;;;;;;0.08;0.08;;;;;;;2.50;100.00;102280.09;5026502;28;20054;-80
2022/01/19 02:54:58;;;;;;;0.10;0.10;;;;;;;2.51;100.00;102272.88;5028866;28;20053;-80
2022/01/19 02:57:35;;;;;;;0.00;0.00;;;;;;;2.61;100.00;102264.50;5025897;28;20060;-81
2022/01/19 03:08:46;;;;;;;0.13;0.13;;;;;;;2.40;100.00;102238.41;5029609;28;20579;-80
2022/01/19 03:11:23;;;;;;;0.00;0.00;;;;;;;2.47;100.00;102221.38;5030259;28;20068;-80
2022/01/19 03:13:52;;;;;;;0.00;0.00;;;;;;;2.40;100.00;102206.16;5024807;28;20053;-80
2022/01/19 03:16:22;;;;;;;0.10;0.10;;;;;;;2.31;100.00;102200.06;5023501;28;20071;-81
2022/01/19 03:18:51;;;;;;;0.10;0.10;;;;;;;2.37;100.00;102200.13;5028482;28;20053;-80
2022/01/19 03:21:24;;;;;;;0.10;0.10;;;;;;;2.29;100.00;102197.56;5030166;28;20045;-81
2022/01/19 03:23:57;;;;;;;0.10;0.10;;;;;;;2.40;100.00;102188.19;5033077;28;20056;-80
2022/01/19 03:26:32;;;;;;;0.10;0.10;;;;;;;2.36;100.00;102173.47;5026929;28;20061;-81
2022/01/19 03:29:16;;;;;;;0.10;0.10;;;;;;;2.28;100.00;102177.09;5026287;28;20046;-80
2022/01/19 03:31:50;;;;;;;0.05;0.05;;;;;;;2.32;100.00;102175.72;5032457;28;20049;-80
2022/01/19 03:34:23;;;;;;;0.10;0.10;;;;;;;2.35;100.00;102164.56;5031448;28;20049;-81
2022/01/19 03:37:02;;;;;;;0.10;0.10;;;;;;;2.29;100.00;102159.13;5020103;28;20053;-81
2022/01/19 03:39:36;;;;;;;0.10;0.10;;;;;;;2.37;100.00;102151.78;5025398;28;20425;-80
2022/01/19 03:42:06;;;;;;;0.25;0.10;;;;;;;2.42;100.00;102137.78;5029079;28;20041;-80
2022/01/19 03:44:40;;;;;;;0.10;0.10;;;;;;;2.32;100.00;102134.56;5022118;28;20054;-81
2022/01/19 03:47:08;;;;;;;0.10;0.10;;;;;;;2.36;100.00;102138.53;5038400;28;20045;-80
2022/01/19 03:49:41;;;;;;;0.10;0.10;;;;;;;2.26;100.00;102128.09;5016004;28;20052;-80
2022/01/19 03:52:15;;;;;;;0.10;0.10;;;;;;;2.19;100.00;102116.44;5026938;28;20053;-80
2022/01/19 03:54:49;;;;;;;0.10;0.10;;;;;;;2.14;100.00;102110.78;5024938;28;20041;-80
2022/01/19 03:57:20;;;;;;;0.10;0.10;;;;;;;2.13;100.00;102106.47;5022339;28;20058;-80
2022/01/19 03:59:53;;;;;;;0.00;0.00;;;;;;;2.08;100.00;102106.19;5021112;28;20042;-80
2022/01/19 04:02:27;;;;;;;0.10;0.10;;;;;;;2.10;100.00;102121.09;5027361;28;20048;-80
2022/01/19 04:05:05;;;;;;;0.08;0.08;;;;;;;2.13;100.00;102136.00;5023097;28;20052;-80
2022/01/19 04:07:36;;;;;;;0.10;0.10;;;;;;;2.14;100.00;102126.91;5026351;28;20436;-81
2022/01/19 04:10:09;;;;;;;0.10;0.10;;;;;;;2.15;100.00;102120.53;5025957;28;20390;-80
2022/01/19 04:12:46;;;;;;;0.10;0.10;;;;;;;2.13;100.00;102118.03;5041471;28;20053;-80
2022/01/19 04:15:20;;;;;;;0.10;0.10;;;;;;;2.07;100.00;102105.34;5026487;28;20044;-81
2022/01/19 04:17:54;;;;;;;0.10;0.10;;;;;;;2.09;100.00;102115.91;5018121;28;20045;-80
2022/01/19 04:20:27;;;;;;;0.10;0.10;;;;;;;2.09;100.00;102108.69;5031400;28;20053;-80
2022/01/19 04:23:01;;;;;;;0.10;0.10;;;;;;;2.07;100.00;102109.88;5026497;28;20050;-79
2022/01/19 04:25:35;;;;;;;0.10;0.10;;;;;;;2.05;100.00;102102.03;5018758;28;20054;-80
2022/01/19 04:28:07;;;;;;;0.10;0.10;;;;;;;2.05;100.00;102093.97;5024191;28;20441;-80
2022/01/19 04:30:39;;;;;;;0.08;0.08;;;;;;;2.04;100.00;102079.72;5024944;28;20057;-80
2022/01/19 04:33:12;;;;;;;0.10;0.10;;;;;;;2.11;100.00;102084.31;5043714;28;20049;-80
2022/01/19 04:35:50;;;;;;;0.20;0.20;;;;;;;2.09;100.00;102075.63;5025425;28;20057;-81
2022/01/19 04:44:30;;;;;;;0.10;0.10;;;;;;;2.09;100.00;102049.59;5021616;28;20053;-80
2022/01/19 05:04:48;;;;;;;0.10;0.10;;;;;;;2.01;100.00;102026.38;5018397;28;20065;-80
2022/01/19 05:07:38;;;;;;;0.10;0.10;;;;;;;1.86;100.00;102034.47;5026610;28;20053;-80
2022/01/19 05:15:42;;;;;;;0.10;0.10;;;;;;;1.97;100.00;102032.31;5025691;28;20049;-80
2022/01/19 05:18:14;;;;;;;0.10;0.10;;;;;;;1.94;100.00;102027.34;5025652;28;20049;-80
2022/01/19 05:20:48;;;;;;;0.10;0.10;;;;;;;1.93;100.00;102022.97;5027554;28;20049;-80
2022/01/19 05:23:53;;;;;;;0.10;0.10;;;;;;;1.94;100.00;102030.84;5034562;28;20041;-80
2022/01/19 05:26:26;;;;;;;0.10;0.10;;;;;;;1.95;100.00;102026.31;5022811;28;20053;-79
2022/01/19 05:28:59;;;;;;;0.10;0.10;;;;;;;1.87;100.00;102022.69;5021114;28;20503;-79
2022/01/19 05:31:33;;;;;;;0.10;0.10;;;;;;;1.81;100.00;102014.56;5025712;28;20053;-80
2022/01/19 05:34:07;;;;;;;0.20;0.20;;;;;;;1.76;100.00;102001.72;5024757;28;20445;-80
2022/01/19 05:36:50;;;;;;;0.00;0.00;;;;;;;1.84;100.00;102003.47;5020100;28;20053;-80
2022/01/19 05:39:52;;;;;;;0.10;0.10;;;;;;;1.87;100.00;101993.16;4986312;28;20518;-81
2022/01/19 05:42:46;;;;;;;0.10;0.10;;;;;;;1.87;100.00;101981.63;5023386;28;20430;-81
2022/01/19 05:45:20;;;;;;;0.00;0.00;;;;;;;1.86;100.00;101971.88;5018551;28;20054;-81
2022/01/19 05:47:48;;;;;;;0.03;0.03;;;;;;;1.84;100.00;101969.41;5022367;28;20052;-80
2022/01/19 05:50:23;;;;;;;0.10;0.10;;;;;;;1.93;100.00;101970.09;5035882;28;20045;-81
2022/01/19 05:52:58;;;;;;;0.10;0.10;;;;;;;1.86;100.00;101955.78;5031770;28;20049;-80
2022/01/19 05:55:31;;;;;;;0.10;0.10;;;;;;;1.92;100.00;101951.50;5024072;28;20088;-80
2022/01/19 05:57:59;;;;;;;0.10;0.10;;;;;;;1.95;100.00;101940.41;5035921;28;20060;-80
2022/01/19 06:00:28;;;;;;;0.10;0.10;;;;;;;1.97;100.00;101931.09;5030132;28;20421;-81
2022/01/19 06:03:01;;;;;;;0.10;0.10;;;;;;;1.93;100.00;101927.16;5023654;28;20049;-81
2022/01/19 06:05:47;;;;;;;0.00;0.00;;;;;;;1.93;100.00;101927.16;5021407;28;20080;-80
2022/01/19 06:08:48;;;;;;;0.10;0.10;;;;;;;1.85;100.00;101932.63;4981241;28;20058;-80
2022/01/19 06:11:17;;;;;;;0.10;0.10;;;;;;;1.86;100.00;101923.56;5014922;28;20097;-79
2022/01/19 06:13:48;;;;;;;0.10;0.10;;;;;;;1.81;100.00;101921.47;5013818;28;20072;-80
2022/01/19 06:16:22;;;;;;;0.10;0.10;;;;;;;1.84;100.00;101912.22;5018912;28;20053;-80
2022/01/19 06:18:50;;;;;;;0.10;0.10;;;;;;;1.84;100.00;101899.59;5024973;28;20049;-79
2022/01/19 06:21:25;;;;;;;0.00;0.00;;;;;;;1.76;100.00;101893.53;5025234;28;20136;-81
2022/01/19 06:23:54;;;;;;;0.00;0.00;;;;;;;1.81;100.00;101893.78;5023498;28;20050;-80
2022/01/19 06:26:25;;;;;;;0.10;0.10;;;;;;;1.91;100.00;101893.47;5022769;28;20053;-80
2022/01/19 06:28:58;;;;;;;0.10;0.10;;;;;;;1.78;100.00;101878.91;5016603;28;20521;-79
2022/01/19 06:31:32;;;;;;;0.10;0.10;;;;;;;1.84;100.00;101880.00;5018717;28;20053;-82
2022/01/19 06:34:07;;;;;;;0.10;0.10;;;;;;;1.82;100.00;101884.72;5019220;28;20099;-79
2022/01/19 06:37:00;;;;;;;0.00;0.00;;;;;;;1.83;100.00;101876.47;5023926;28;20068;-79
2022/01/19 06:39:40;;;;;;;0.05;0.05;;;;;;;1.86;100.00;101884.16;5021237;28;20364;-81
2022/01/19 06:42:14;;;;;;;0.00;0.00;;;;;;;1.86;100.00;101877.94;5017020;28;20056;-79
2022/01/19 06:44:47;;;;;;;0.10;0.10;;;;;;;1.88;100.00;101862.47;5018229;28;20049;-80
2022/01/19 06:47:20;;;;;;;0.10;0.10;;;;;;;1.85;100.00;101866.38;5017502;28;20053;-80
2022/01/19 06:49:49;;;;;;;0.10;0.10;;;;;;;1.87;100.00;101856.25;5014037;28;20050;-80
2022/01/19 06:52:33;;;;;;;0.10;0.10;;;;;;;1.84;100.00;101858.53;5021185;28;20053;-79
2022/01/19 06:55:07;;;;;;;0.10;0.10;;;;;;;1.93;100.00;101859.22;5020163;28;20065;-79
2022/01/19 06:57:41;;;;;;;0.10;0.10;;;;;;;2.04;100.00;101850.63;5019313;28;20049;-79
2022/01/19 07:00:32;;;;;;;0.10;0.10;;;;;;;1.94;100.00;101847.44;5019570;28;20077;-79
2022/01/19 07:03:14;;;;;;;0.00;0.00;;;;;;;2.00;100.00;101849.34;5020715;28;20057;-79
2022/01/19 07:05:49;;;;;;;0.10;0.10;;;;;;;1.92;100.00;101841.44;5017311;28;20072;-79
2022/01/19 07:08:36;;;;;;;0.10;0.10;;;;;;;1.96;100.00;101832.81;5030211;28;20050;-80
2022/01/19 07:11:09;;;;;;;0.10;0.10;;;;;;;1.93;100.00;101824.31;5020479;28;20856;-80
2022/01/19 07:13:43;;;;;;;0.10;0.10;;;;;;;1.99;100.00;101812.78;5022616;28;20052;-80
2022/01/19 07:16:16;;;;;;;0.10;0.10;;;;;;;2.06;100.00;101813.69;5036069;28;20045;-78
2022/01/19 07:18:50;;;;;;;0.10;0.10;;;;;;;2.01;100.00;101813.44;5018074;28;20054;-79
2022/01/19 07:21:23;;;;;;;0.10;0.10;;;;;;;2.14;100.00;101810.84;5022672;28;20057;-79
2022/01/19 07:24:00;;;;;;;0.10;0.10;;;;;;;2.09;100.00;101815.97;5020628;28;20049;-78
2022/01/19 07:26:29;;;;;;;0.10;0.10;;;;;;;2.04;100.00;101800.44;5025620;28;20049;-79
2022/01/19 07:29:04;;;;;;;0.10;0.10;;;;;;;2.17;100.00;101805.09;5029904;28;20049;-80
2022/01/19 07:31:38;;;;;;;0.00;0.00;;;;;;;2.11;100.00;101803.16;5025160;28;20104;-79
2022/01/19 07:34:12;;;;;;;0.10;0.10;;;;;;;2.18;100.00;101806.75;5023330;28;20053;-80
2022/01/19 07:36:46;;;;;;;0.10;0.10;;;;;;;2.20;100.00;101803.88;5014109;28;20133;-80
2022/01/19 07:39:21;;;;;;;0.10;0.10;;;;;;;2.23;100.00;101799.97;5033082;28;20054;-79
2022/01/19 07:41:55;;;;;;;0.10;0.10;;;;;;;2.21;100.00;101800.97;5018559;28;20053;-78
2022/01/19 07:44:42;;;;;;;0.10;0.10;;;;;;;2.28;100.00;101789.44;5014196;28;20053;-82
2022/01/19 07:47:22;;;;;;;0.10;0.10;;;;;;;2.21;100.00;101790.22;5013060;28;20068;-81
2022/01/19 07:50:11;;;;;;;0.10;0.10;;;;;;;2.24;100.00;101780.09;5015706;28;20060;-81
2022/01/19 07:52:59;;;;;;;0.20;0.20;;;;;;;2.30;100.00;101785.53;5012102;28;20049;-82
2022/01/19 07:55:47;;;;;;;0.10;0.10;;;;;;;2.30;100.00;101772.09;5001691;28;20049;-81
2022/01/19 07:58:25;;;;;;;0.10;0.10;;;;;;;2.33;100.00;101771.69;4997393;28;20062;-81
2022/01/19 08:01:09;;;;;;;0.10;0.10;;;;;;;2.44;100.00;101766.81;4996183;28;20049;-81
2022/01/19 08:03:56;;;;;;;0.10;0.10;;;;;;;2.39;100.00;101759.34;4997981;28;20060;-82
2022/01/19 08:06:32;;;;;;;0.00;0.00;;;;;;;2.42;100.00;101740.13;5012070;28;20053;-83
2022/01/19 08:09:07;;;;;;;0.00;0.00;;;;;;;2.46;100.00;101745.94;5004823;28;20056;-83
2022/01/19 08:11:36;;;;;;;0.10;0.10;;;;;;;2.44;100.00;101734.56;4991954;28;20607;-78
2022/01/19 08:14:20;;;;;;;0.10;0.10;;;;;;;2.53;100.00;101731.50;4998672;28;20315;-83
2022/01/19 08:16:48;;;;;;;0.10;0.10;;;;;;;2.56;100.00;101735.66;4996556;28;20053;-83
2022/01/19 08:19:22;;;;;;;0.15;0.15;;;;;;;2.61;100.00;101729.66;4996153;28;20056;-81
2022/01/19 08:21:56;;;;;;;0.10;0.10;;;;;;;2.60;100.00;101728.03;4996895;28;20057;-81
2022/01/19 08:24:31;;;;;;;0.10;0.10;;;;;;;2.51;100.00;101722.81;5000673;28;20060;-80
2022/01/19 08:27:06;;;;;;;0.10;0.10;;;;;;;2.64;100.00;101715.84;4998590;28;21205;-81
2022/01/19 08:29:46;;;;;;;0.10;0.10;;;;;;;2.52;100.00;101708.34;5008350;28;20053;-81
2022/01/19 08:32:25;;;;;;;0.10;0.10;;;;;;;2.57;100.00;101710.44;5002027;28;20053;-81
2022/01/19 08:35:12;;;;;;;0.10;0.10;;;;;;;2.68;100.00;101707.16;5002681;28;20053;-81
2022/01/19 08:38:03;;;;;;;0.10;0.10;;;;;;;2.64;100.00;101691.66;4998802;28;20057;-80
2022/01/19 08:40:46;;;;;;;0.10;0.10;;;;;;;2.66;100.00;101692.28;5012728;28;21000;-80
2022/01/19 08:43:27;;;;;;;0.10;0.10;;;;;;;2.67;100.00;101684.00;5004153;28;20599;-81
2022/01/19 08:46:01;;;;;;;0.10;0.10;;;;;;;2.61;100.00;101689.34;4994972;28;20345;-81
2022/01/19 08:48:48;;;;;;;0.20;0.10;;;;;;;2.72;100.00;101686.06;5012291;28;20061;-80
2022/01/19 08:51:33;;;;;;;0.10;0.10;;;;;;;2.69;100.00;101686.50;5020567;28;20096;-81
2022/01/19 08:54:23;;;;;;;0.10;0.10;;;;;;;2.70;100.00;101680.91;4996211;28;20649;-80
2022/01/19 08:57:02;;;;;;;0.10;0.10;;;;;;;2.81;100.00;101660.66;4997097;28;20054;-81
2022/01/19 08:59:36;;;;;;;0.10;0.10;;;;;;;2.81;100.00;101657.97;4993937;28;20748;-80
2022/01/19 09:02:06;;;;;;;0.10;0.10;;;;;;;2.78;100.00;101646.81;5002148;28;20072;-80
2022/01/19 09:04:39;;;;;;;0.10;0.10;;;;;;;2.83;100.00;101644.34;4989829;28;20545;-80
2022/01/19 09:07:07;;;;;;;0.10;0.10;;;;;;;2.80;100.00;101639.38;5005077;28;20509;-81
2022/01/19 09:09:36;;;;;;;0.15;0.15;;;;;;;2.78;100.00;101628.81;4999469;28;20061;-80
2022/01/19 09:12:10;;;;;;;0.10;0.10;;;;;;;2.79;100.00;101626.94;5000936;28;20045;-80
2022/01/19 09:14:40;;;;;;;0.10;0.10;;;;;;;2.78;100.00;101625.31;5004484;28;20049;-82
2022/01/19 09:17:08;;;;;;;0.10;0.10;;;;;;;2.87;100.00;101624.06;4997347;28;20077;-82
2022/01/19 09:19:41;;;;;;;0.10;0.10;;;;;;;2.81;100.00;101627.59;4998972;28;20718;-80
2022/01/19 09:22:11;;;;;;;0.17;0.17;;;;;;;2.80;100.00;101625.94;4992220;28;20660;-81
2022/01/19 09:24:43;;;;;;;0.10;0.10;;;;;;;2.86;100.00;101609.81;5008983;28;20060;-82
2022/01/19 09:27:13;;;;;;;0.10;0.10;;;;;;;2.79;100.00;101592.00;4997947;28;20691;-78
2022/01/19 09:29:45;;;;;;;0.13;0.13;;;;;;;2.99;100.00;101605.47;5000098;28;20819;-80
2022/01/19 09:32:18;;;;;;;0.00;0.00;;;;;;;2.85;100.00;101605.47;4996175;28;20080;-81
2022/01/19 09:34:56;;;;;;;0.10;0.10;;;;;;;2.90;100.00;101591.41;4992945;28;20553;-80
2022/01/19 09:37:29;;;;;;;;;;;;;;;2.94;100.00;101592.66;5000076;28;20038;-82
2022/01/19 09:40:04;;;;;;;0.10;0.10;;;;;;;2.91;100.00;101590.38;4990412;28;19929;-79
2022/01/19 09:42:38;;;;;;;0.00;0.00;;;;;;;2.98;100.00;101591.19;4998885;28;20049;-82
2022/01/19 09:45:08;;;;;;;0.10;0.10;;;;;;;2.93;100.00;101592.84;5004842;28;20478;-81
2022/01/19 09:47:36;;;;;;;0.10;0.10;;;;;;;2.86;100.00;101604.44;4996207;28;20053;-83
2022/01/19 09:50:09;;;;;;;0.10;0.10;;;;;;;2.93;100.00;101588.31;5014033;28;20062;-83
2022/01/19 09:52:42;;;;;;;0.10;0.10;;;;;;;2.86;100.00;101582.94;4998845;28;20041;-81
2022/01/19 09:55:11;;;;;;;0.10;0.10;;;;;;;2.82;100.00;101584.38;4992258;28;20055;-80
2022/01/19 09:57:44;;;;;;;0.10;0.10;;;;;;;2.87;100.00;101578.38;4999046;28;20148;-81
2022/01/19 10:00:19;;;;;;;0.10;0.10;;;;;;;2.94;100.00;101565.78;5016674;28;20057;-80
2022/01/19 10:03:12;;;;;;;0.10;0.10;;;;;;;2.90;100.00;101556.47;5008289;28;20340;-81
2022/01/19 10:05:56;;;;;;;0.10;0.10;;;;;;;2.99;100.00;101551.69;5013974;28;20064;-80
2022/01/19 10:08:39;;;;;;;0.10;0.10;;;;;;;2.88;100.00;101537.81;4994087;28;20497;-81
2022/01/19 10:11:10;;;;;;;;;;;;;;;3.02;100.00;101537.81;4996940;28;20053;-82
2022/01/19 10:17:00;;;;;;;0.10;0.10;;;;;;;2.97;100.00;101537.63;4996271;28;20068;-82
2022/01/19 10:19:34;;;;;;;;;;;;;;;2.97;100.00;101534.94;4995546;28;20049;-80
2022/01/19 10:22:09;;;;;;;0.10;0.10;;;;;;;2.92;100.00;101506.00;5000283;28;20366;-80
2022/01/19 10:24:50;;;;;;;0.10;0.10;;;;;;;3.05;100.00;101526.66;4994565;28;20053;-83
2022/01/19 10:27:29;;;;;;;0.10;0.10;;;;;;;2.91;100.00;101523.16;4997651;28;20061;-81
2022/01/19 10:30:23;;;;;;;0.10;0.10;;;;;;;2.78;100.00;101509.72;5003765;28;20572;-80
2022/01/19 10:33:02;;;;;;;0.00;0.00;;;;;;;2.67;100.00;101498.56;4995556;28;20060;-82
2022/01/19 10:35:38;;;;;;;0.10;0.10;;;;;;;2.65;100.00;101505.16;5001142;28;20054;-81
2022/01/19 10:38:11;;;;;;;0.15;0.15;;;;;;;2.75;100.00;101499.38;4997975;28;20057;-81
2022/01/19 10:40:43;;;;;;;0.10;0.10;;;;;;;2.75;100.00;101494.00;5006541;28;20072;-81
2022/01/19 10:43:28;;;;;;;0.10;0.10;;;;;;;2.83;100.00;101491.09;4999663;28;20810;-81
2022/01/19 10:45:58;;;;;;;0.10;0.10;;;;;;;2.77;100.00;101495.44;5007994;28;20064;-79
2022/01/19 10:48:39;;;;;;;0.00;0.00;;;;;;;2.76;100.00;101487.59;5007688;28;20572;-81
2022/01/19 10:51:14;;;;;;;0.00;0.00;;;;;;;2.81;100.00;101477.88;4997859;28;20057;-81
2022/01/19 10:54:08;;;;;;;0.00;0.00;;;;;;;2.86;100.00;101477.25;5005967;28;20045;-81
2022/01/19 10:56:45;;;;;;;0.10;0.10;;;;;;;2.86;100.00;101445.81;5005522;28;20232;-82
2022/01/19 10:59:19;;;;;;;0.10;0.10;;;;;;;2.84;100.00;101445.19;4997389;28;20049;-81
2022/01/19 11:01:55;;;;;;;0.10;0.10;;;;;;;2.88;100.00;101435.66;5002234;28;20060;-81
2022/01/19 11:04:27;;;;;;;0.10;0.10;;;;;;;2.88;100.00;101438.34;4994567;28;20320;-80
2022/01/19 11:06:59;;;;;;;0.10;0.10;;;;;;;2.88;100.00;101424.91;4992072;28;20058;-81
2022/01/19 11:09:34;;;;;;;0.10;0.10;;;;;;;2.92;100.00;101430.69;4997725;28;20054;-81
2022/01/19 11:12:12;;;;;;;0.05;0.05;;;;;;;2.88;100.00;101424.91;4997408;28;22570;-80
2022/01/19 11:14:46;;;;;;;0.08;0.08;;;;;;;2.96;100.00;101425.75;4993566;28;20073;-81
2022/01/19 11:17:14;;;;;;;0.10;0.10;;;;;;;2.91;100.00;101418.28;4995967;28;20065;-80
2022/01/19 11:19:44;;;;;;;0.00;0.00;;;;;;;2.80;100.00;101405.50;4998963;28;20061;-81
2022/01/19 11:22:40;;;;;;;0.05;0.05;;;;;;;2.79;100.00;101412.75;5007407;28;20435;-82
2022/01/19 11:25:22;;;;;;;0.10;0.10;;;;;;;2.73;100.00;101392.06;4994751;28;20064;-80
2022/01/19 11:27:56;;;;;;;0.10;0.10;;;;;;;2.74;100.00;101384.84;5002379;28;20480;-80
2022/01/19 11:30:26;;;;;;;0.10;0.10;;;;;;;2.68;100.00;101394.56;4999929;28;20069;-79
2022/01/19 11:33:24;;;;;;;0.10;0.10;;;;;;;2.63;100.00;101387.13;4998667;28;20053;-81
2022/01/19 11:36:01;;;;;;;0.10;0.10;;;;;;;2.70;100.00;101376.38;5000677;28;20466;-79
2022/01/19 11:38:36;;;;;;;0.10;0.10;;;;;;;2.67;100.00;101353.44;5022188;28;20064;-81
2022/01/19 11:41:47;;;;;;;0.10;0.10;;;;;;;2.70;100.00;101379.06;5001869;28;20049;-80
2022/01/19 11:44:37;;;;;;;0.00;0.00;;;;;;;2.68;100.00;101370.38;4996788;28;20411;-80
2022/01/19 11:47:21;;;;;;;0.10;0.10;;;;;;;2.71;100.00;101359.22;5005022;28;20431;-79
2022/01/19 11:49:56;;;;;;;0.00;0.00;;;;;;;2.64;100.00;101347.66;4999230;28;20050;-81
2022/01/19 11:53:09;;;;;;;0.10;0.10;;;;;;;2.66;100.00;101341.00;5002944;28;20049;-80
2022/01/19 11:56:01;;;;;;;0.10;0.10;;;;;;;2.56;100.00;101316.47;5006425;28;20061;-79
2022/01/19 11:58:35;;;;;;;0.10;0.10;;;;;;;2.55;100.00;101328.22;4997185;28;20053;-81
2022/01/19 12:01:21;;;;;;;0.10;0.10;;;;;;;2.57;100.00;101312.75;5001137;28;20062;-81
2022/01/19 12:04:13;;;;;;;0.10;0.10;;;;;;;2.48;100.00;101304.06;4995400;28;20943;-79
2022/01/19 12:06:47;;;;;;;0.10;0.10;;;;;;;2.48;100.00;101304.06;4998372;28;20045;-79
2022/01/19 12:09:22;;;;;;;0.00;0.00;;;;;;;2.46;100.00;101295.41;4993660;28;20717;-79
2022/01/19 12:12:14;;;;;;;0.00;0.00;;;;;;;2.24;100.00;101272.50;4994636;28;20061;-79
2022/01/19 12:14:51;;;;;;;0.10;0.10;;;;;;;2.25;100.00;101279.53;5010243;28;20505;-79
2022/01/19 12:17:55;;;;;;;0.00;0.00;;;;;;;2.27;100.00;101277.47;4997483;28;20446;-80
2022/01/19 12:20:51;;;;;;;0.03;0.03;;;;;;;2.39;100.00;101262.38;4997831;28;20049;-79
2022/01/19 12:23:25;;;;;;;0.10;0.10;;;;;;;2.30;100.00;101244.81;4994589;28;20057;-78
2022/01/19 12:26:00;;;;;;;0.10;0.10;;;;;;;2.19;100.00;101238.22;4993441;28;20068;-80
2022/01/19 12:28:49;;;;;;;0.00;0.00;;;;;;;2.15;100.00;101228.94;4992820;28;20060;-80
2022/01/19 12:31:31;;;;;;;0.10;0.10;;;;;;;2.13;100.00;101226.47;4996317;28;20553;-77
2022/01/19 12:34:21;;;;;;;0.10;0.10;;;;;;;2.19;100.00;101219.44;4992115;28;20972;-80
2022/01/19 12:36:55;;;;;;;0.10;0.10;;;;;;;2.16;100.00;101227.91;4999181;28;20057;-77
2022/01/19 12:39:41;;;;;;;0.10;0.10;;;;;;;2.12;100.00;101213.25;5008838;28;20057;-79
2022/01/19 12:42:20;;;;;;;0.10;0.10;;;;;;;2.03;100.00;101193.84;4996768;28;20057;-80
2022/01/19 12:44:55;;;;;;;0.10;0.10;;;;;;;2.14;100.00;101206.66;5001140;28;20049;-81
2022/01/19 12:47:47;;;;;;;0.10;0.10;;;;;;;2.04;100.00;101207.09;5003369;28;20049;-80
2022/01/19 12:50:35;;;;;;;0.00;0.00;;;;;;;1.95;100.00;101204.84;5003708;28;20049;-78
2022/01/19 12:53:13;;;;;;;0.00;0.00;;;;;;;1.99;100.00;101200.66;5009359;28;20049;-78
2022/01/19 12:55:43;;;;;;;0.00;0.00;;;;;;;2.02;100.00;101209.13;5001847;28;20060;-78
2022/01/19 12:58:22;;;;;;;0.00;0.00;;;;;;;2.10;100.00;101207.25;5003661;28;20108;-78
2022/01/19 13:00:58;;;;;;;0.00;0.00;;;;;;;2.05;100.00;101189.09;5004401;28;20053;-79
2022/01/19 13:03:31;;;;;;;0.10;0.10;;;;;;;2.11;100.00;101182.06;5006831;28;20046;-79
2022/01/19 13:06:07;;;;;;;0.10;0.10;;;;;;;1.99;100.00;101176.50;5020469;28;20060;-80
2022/01/19 13:08:46;;;;;;;0.10;0.10;;;;;;;2.02;100.00;101165.38;5008376;28;20075;-80
2022/01/19 13:11:32;;;;;;;0.00;0.00;;;;;;;1.93;100.00;101151.34;5003118;28;20054;-80
2022/01/19 13:14:05;;;;;;;0.10;0.10;;;;;;;1.99;100.00;101146.97;4999563;28;20480;-81